This is the latest recevied weather packets stored in our database for station/object WA9AFM-10. If no packets are shown the sender has not sent any weather packets the latest 10 day(s).
| Time | Temp. | Humidity | Pressure | Rain* | Wind** | Luminosity | Snow |
|---|---|---|---|---|---|---|---|
| 1777956672 | 21.67° C | 76% | 996 hPa | 0 mm | - | - | - |
| 1777954874 | 22.22° C | 75% | 996.3 hPa | 0 mm | - | - | - |
| 1777953073 | 22.22° C | 73% | 996.3 hPa | 0 mm | - | - | - |
| 1777949473 | 23.33° C | 70% | 996.2 hPa | 0 mm | - | - | - |
| 1777945872 | 23.89° C | 67% | 996 hPa | 0 mm | - | - | - |
| 1777942273 | 25.56° C | 64% | 996.1 hPa | 0 mm | - | - | - |
| 1777940475 | 25.56° C | 62% | 996.2 hPa | 0 mm | - | - | - |
| 1777938672 | 26.67° C | 59% | 996.5 hPa | 0 mm | - | - | - |
| 1777936873 | 26.67° C | 59% | 996.8 hPa | 0 mm | - | - | - |
| 1777935073 | 26.67° C | 58% | 997.2 hPa | 0 mm | - | - | - |
| 1777933274 | 27.22° C | 57% | 997.3 hPa | 0 mm | - | - | - |
| 1777929673 | 27.22° C | 55% | 998.1 hPa | 0 mm | - | - | - |
| 1777927873 | 27.78° C | 52% | 998.5 hPa | 0 mm | - | - | - |
| 1777926074 | 27.78° C | 52% | 998.7 hPa | 0 mm | - | - | - |
| 1777922472 | 27.22° C | 50% | 999.9 hPa | 0 mm | - | - | - |
| 1777917074 | 26.11° C | 50% | 1001.1 hPa | 0 mm | - | - | - |
| 1777915276 | 26.11° C | 51% | 1001.3 hPa | 0 mm | - | - | - |
| 1777913474 | 25° C | 52% | 1001.5 hPa | 0 mm | - | - | - |
| 1777912248 | 23.89° C | 53% | 1001.8 hPa | 0 mm | - | - | - |
| 1777912050 | 23.89° C | 53% | 1001.8 hPa | 0 mm | - | - | - |
| 1777911673 | 23.89° C | 53% | 1001.8 hPa | 0 mm | - | - | - |
| 1777909874 | 23.33° C | 53% | 1002.1 hPa | 0 mm | - | - | - |
| 1777908074 | 22.22° C | 55% | 1002.2 hPa | 0 mm | - | - | - |
| 1777906274 | 21.67° C | 56% | 1002.5 hPa | 0 mm | - | - | - |
| 1777904473 | 20.56° C | 57% | 1003 hPa | 0 mm | - | - | - |
* Rain latest hour (hover to see other rain measurements)
** Current wind speed in m/s (hover to see current wind gust speed)